Time;durP1;ratioP1;P1;durP2;ratioP2;P2;SDS_P1;SDS_P2;PMS_P1;PMS_P2;Temp;Humidity;BMP_temperature;BMP_pressure;BME280_temperature;BME280_humidity;BME280_pressure;Samples;Min_cycle;Max_cycle;Signal;HPM_P1;HPM_P2
2023/06/29 00:02:02;;;;;;;;;;;;;;;16.21;100.00;98302.58;107913;1252;74455;-75
2023/06/29 00:04:32;;;;;;;;;;;;;;;16.13;100.00;98292.26;109010;1252;67197;-75
2023/06/29 00:07:02;;;;;;;;;;;;;;;16.48;100.00;98294.29;106017;1257;71110;-76
2023/06/29 00:09:30;;;;;;;;;;;;;;;16.14;100.00;98297.77;106018;1257;61711;-77
2023/06/29 00:11:58;;;;;;;;;;;;;;;16.37;100.00;98297.77;106056;1253;61330;-76
2023/06/29 00:14:26;;;;;;;;;;;;;;;16.43;100.00;98293.92;105858;1253;74656;-76
2023/06/29 00:16:53;;;;;;;;;;;;;;;16.25;100.00;98296.09;106012;1253;68354;-77
2023/06/29 00:19:20;;;;;;;;;;;;;;;16.29;100.00;98288.77;106040;1253;71432;-74
2023/06/29 00:21:48;;;;;;;;;;;;;;;16.51;100.00;98287.37;105974;1253;61237;-76
2023/06/29 00:24:15;;;;;;;;;;;;;;;16.39;100.00;98285.39;105985;1253;61427;-76
2023/06/29 00:26:43;;;;;;;;;;;;;;;16.47;100.00;98285.79;105979;1253;74614;-77
2023/06/29 00:29:10;;;;;;;;;;;;;;;16.70;100.00;98281.26;106011;1253;67133;-78
2023/06/29 00:31:38;;;;;;;;;;;;;;;16.56;100.00;98281.05;106090;1253;72443;-77
2023/06/29 00:34:05;;;;;;;;;;;;;;;16.80;100.00;98276.79;105801;1256;62045;-78
2023/06/29 00:36:33;;;;;;;;;;;;;;;16.75;100.00;98276.19;106020;1253;61945;-78
2023/06/29 00:39:00;;;;;;;;;;;;;;;16.76;100.00;98271.96;105949;1258;74476;-79
2023/06/29 00:41:30;;;;;;;;;;;;;;;16.74;100.00;98272.67;106045;1259;67186;-76
2023/06/29 00:43:57;;;;;;;;;;;;;;;16.68;100.00;98268.63;106100;1259;71286;-81
2023/06/29 00:46:25;;;;;;;;;;;;;;;16.75;100.00;98268.14;105998;1257;61318;-79
2023/06/29 00:48:52;;;;;;;;;;;;;;;17.02;100.00;98268.75;105870;1253;61396;-77
2023/06/29 00:51:19;;;;;;;;;;;;;;;17.12;100.00;98269.17;106008;1253;74604;-79
2023/06/29 00:53:47;;;;;;;;;;;;;;;17.00;100.00;98262.96;105995;1259;68440;-76
2023/06/29 00:56:14;;;;;;;;;;;;;;;17.02;100.00;98257.28;105884;1258;71434;-75
2023/06/29 00:58:42;;;;;;;;;;;;;;;16.87;100.00;98253.30;105999;1253;61640;-79
2023/06/29 01:01:09;;;;;;;;;;;;;;;16.76;100.00;98250.14;105882;1256;61342;-79
2023/06/29 01:03:40;;;;;;;;;;;;;;;16.88;100.00;98249.38;105816;1254;73958;-81
2023/06/29 01:06:09;;;;;;;;;;;;;;;16.99;100.00;98247.77;105834;1260;67594;-80
2023/06/29 01:08:37;;;;;;;;;;;;;;;16.86;100.00;98244.20;105847;1256;70505;-81
2023/06/29 01:11:07;;;;;;;;;;;;;;;16.97;100.00;98248.35;105817;1260;61617;-76
2023/06/29 01:13:35;;;;;;;;;;;;;;;16.95;100.00;98245.33;105824;1256;61309;-78
2023/06/29 01:16:03;;;;;;;;;;;;;;;16.53;100.00;98240.74;105818;1256;74658;-74
2023/06/29 01:18:30;;;;;;;;;;;;;;;16.05;100.00;98237.09;105800;1261;67182;-80
2023/06/29 01:20:58;;;;;;;;;;;;;;;15.88;100.00;98234.96;105795;1256;73162;-77
2023/06/29 01:23:27;;;;;;;;;;;;;;;16.20;100.00;98236.46;105811;1257;61597;-77
2023/06/29 01:25:55;;;;;;;;;;;;;;;16.53;100.00;98235.27;105903;1259;61144;-76
2023/06/29 01:28:26;;;;;;;;;;;;;;;16.58;100.00;98233.14;105968;1257;73474;-80
2023/06/29 01:30:53;;;;;;;;;;;;;;;16.67;100.00;98236.34;105846;1254;68396;-78
2023/06/29 01:33:21;;;;;;;;;;;;;;;16.38;100.00;98232.04;106062;1251;72538;-81
2023/06/29 01:35:52;;;;;;;;;;;;;;;16.66;100.00;98235.56;105983;1251;61536;-83
2023/06/29 01:38:46;;;;;;;;;;;;;;;16.79;100.00;98233.09;106196;1251;61326;-82
2023/06/29 01:41:15;;;;;;;;;;;;;;;16.90;100.00;98233.85;105527;1260;73757;-80
2023/06/29 01:43:43;;;;;;;;;;;;;;;16.84;100.00;98236.23;105535;1265;66821;-76
2023/06/29 01:46:10;;;;;;;;;;;;;;;16.61;100.00;98233.80;105533;1260;72592;-77
2023/06/29 01:48:37;;;;;;;;;;;;;;;16.66;100.00;98236.36;105501;1260;61247;-80
2023/06/29 01:51:06;;;;;;;;;;;;;;;16.57;100.00;98234.91;105463;1259;61451;-78
2023/06/29 01:53:36;;;;;;;;;;;;;;;16.67;100.00;98231.80;105455;1260;74851;-79
2023/06/29 01:56:03;;;;;;;;;;;;;;;16.58;100.00;98231.61;105482;1259;67650;-78
2023/06/29 01:58:31;;;;;;;;;;;;;;;16.78;100.00;98231.59;105449;1263;71427;-76
2023/06/29 02:00:58;;;;;;;;;;;;;;;16.74;100.00;98226.38;105453;1265;61404;-77
2023/06/29 02:03:25;;;;;;;;;;;;;;;16.80;100.00;98226.09;105473;1264;61366;-76
2023/06/29 02:05:53;;;;;;;;;;;;;;;16.90;100.00;98224.45;105561;1262;74545;-80
2023/06/29 02:08:20;;;;;;;;;;;;;;;16.98;100.00;98223.08;105577;1266;68568;-84
2023/06/29 02:10:48;;;;;;;;;;;;;;;16.95;100.00;98223.02;105523;1265;72684;-82
2023/06/29 02:13:15;;;;;;;;;;;;;;;17.13;100.00;98220.25;105543;1262;61747;-78
2023/06/29 02:15:44;;;;;;;;;;;;;;;17.17;100.00;98221.48;105510;1264;61176;-78
2023/06/29 02:18:12;;;;;;;;;;;;;;;17.12;100.00;98221.76;105858;1252;73442;-81
2023/06/29 02:20:40;;;;;;;;;;;;;;;17.20;100.00;98223.30;106269;1257;67224;-80
2023/06/29 02:23:08;;;;;;;;;;;;;;;17.31;100.00;98221.68;106137;1251;72689;-85
2023/06/29 02:25:35;;;;;;;;;;;;;;;17.28;100.00;98219.27;106210;1251;61744;-80
2023/06/29 02:28:04;;;;;;;;;;;;;;;17.14;100.00;98219.73;106107;1253;61260;-78
2023/06/29 02:30:31;;;;;;;;;;;;;;;17.08;100.00;98222.84;106039;1257;73365;-79
2023/06/29 02:32:59;;;;;;;;;;;;;;;17.13;100.00;98223.73;105934;1258;68798;-82
2023/06/29 02:35:26;;;;;;;;;;;;;;;17.33;100.00;98222.63;106032;1258;72568;-79
2023/06/29 02:37:55;;;;;;;;;;;;;;;17.51;100.00;98218.50;105931;1255;61773;-80
2023/06/29 02:40:24;;;;;;;;;;;;;;;17.49;100.00;98218.86;106081;1257;61306;-82
2023/06/29 02:42:51;;;;;;;;;;;;;;;17.50;100.00;98218.53;105891;1259;74581;-84
2023/06/29 02:45:19;;;;;;;;;;;;;;;17.66;100.00;98220.64;105911;1258;67594;-78
2023/06/29 02:47:46;;;;;;;;;;;;;;;17.82;100.00;98223.01;105831;1258;72552;-82
2023/06/29 02:50:15;;;;;;;;;;;;;;;17.96;100.00;98222.43;106120;1253;61353;-80
2023/06/29 02:52:45;;;;;;;;;;;;;;;17.95;100.00;98217.90;106090;1251;61277;-82
2023/06/29 02:55:13;;;;;;;;;;;;;;;17.91;100.00;98215.73;106165;1251;74453;-80
2023/06/29 02:57:41;;;;;;;;;;;;;;;17.84;100.00;98215.02;106022;1258;67143;-80
2023/06/29 03:00:08;;;;;;;;;;;;;;;17.34;100.00;98219.94;105995;1257;71397;-80
2023/06/29 03:02:37;;;;;;;;;;;;;;;17.54;100.00;98214.27;106105;1258;61340;-78
2023/06/29 03:05:07;;;;;;;;;;;;;;;17.64;100.00;98212.52;106113;1252;62306;-86
2023/06/29 03:07:35;;;;;;;;;;;;;;;17.70;100.00;98216.23;108738;1253;73483;-78
2023/06/29 03:10:02;;;;;;;;;;;;;;;17.53;100.00;98215.73;109174;1253;67191;-81
2023/06/29 03:12:30;;;;;;;;;;;;;;;17.74;100.00;98215.42;106224;1255;71546;-78
2023/06/29 03:14:57;;;;;;;;;;;;;;;17.57;100.00;98216.48;105925;1253;61538;-79
2023/06/29 03:17:27;;;;;;;;;;;;;;;17.70;100.00;98215.27;105957;1258;61165;-79
2023/06/29 03:19:55;;;;;;;;;;;;;;;17.83;100.00;98218.71;105991;1254;74503;-81
2023/06/29 03:22:24;;;;;;;;;;;;;;;17.99;100.00;98217.73;106300;1256;67440;-79
2023/06/29 03:24:52;;;;;;;;;;;;;;;17.81;100.00;98221.19;106043;1257;71345;-79
2023/06/29 03:27:20;;;;;;;;;;;;;;;17.98;100.00;98224.07;106023;1255;61595;-82
2023/06/29 03:29:51;;;;;;;;;;;;;;;18.13;100.00;98221.77;105972;1253;61328;-79
2023/06/29 03:32:19;;;;;;;;;;;;;;;18.16;100.00;98224.66;105887;1254;73336;-76
2023/06/29 03:34:46;;;;;;;;;;;;;;;18.27;100.00;98219.68;105925;1253;67291;-80
2023/06/29 03:37:13;;;;;;;;;;;;;;;18.43;100.00;98221.91;106024;1254;71423;-80
2023/06/29 03:39:41;;;;;;;;;;;;;;;18.47;100.00;98221.33;106096;1257;61279;-79
2023/06/29 03:42:08;;;;;;;;;;;;;;;18.51;100.00;98218.47;106063;1256;61421;-76
2023/06/29 03:44:36;;;;;;;;;;;;;;;18.46;100.00;98215.88;106075;1252;73753;-76
2023/06/29 03:47:04;;;;;;;;;;;;;;;18.51;100.00;98213.70;105962;1254;68250;-81
2023/06/29 03:49:32;;;;;;;;;;;;;;;18.49;100.00;98217.14;105948;1258;72646;-79
2023/06/29 03:52:00;;;;;;;;;;;;;;;18.56;100.00;98219.85;105870;1258;61222;-79
2023/06/29 03:54:27;;;;;;;;;;;;;;;18.84;100.00;98227.13;106106;1253;61295;-79
2023/06/29 03:56:55;;;;;;;;;;;;;;;18.45;100.00;98218.79;106038;1258;73432;-78
2023/06/29 03:59:22;;;;;;;;;;;;;;;17.78;100.00;98220.08;106086;1256;68387;-78
2023/06/29 04:01:50;;;;;;;;;;;;;;;17.39;100.00;98214.99;105917;1259;72558;-78
2023/06/29 04:04:18;;;;;;;;;;;;;;;16.99;100.00;98215.06;105939;1252;61256;-77
2023/06/29 04:06:45;;;;;;;;;;;;;;;17.31;100.00;98216.23;105973;1257;61277;-79
2023/06/29 04:09:12;;;;;;;;;;;;;;;16.93;100.00;98216.06;105957;1259;74592;-77
2023/06/29 04:11:40;;;;;;;;;;;;;;;16.91;100.00;98212.27;105901;1254;70805;-79
2023/06/29 04:14:07;;;;;;;;;;;;;;;16.89;100.00;98214.52;105959;1258;72605;-81
2023/06/29 04:16:35;;;;;;;;;;;;;;;16.86;100.00;98212.70;106042;1254;61221;-77
2023/06/29 04:19:02;;;;;;;;;;;;;;;17.56;100.00;98218.28;106198;1255;61350;-78
2023/06/29 04:21:29;;;;;;;;;;;;;;;16.98;100.00;98220.46;106110;1255;74651;-81
2023/06/29 04:23:57;;;;;;;;;;;;;;;17.00;100.00;98223.54;106251;1256;67217;-78
2023/06/29 04:26:31;;;;;;;;;;;;;;;17.80;100.00;98224.02;106016;1259;71268;-78
2023/06/29 04:29:01;;;;;;;;;;;;;;;18.03;100.00;98225.94;106077;1253;61278;-80
2023/06/29 04:31:29;;;;;;;;;;;;;;;18.15;100.00;98231.05;106207;1253;61279;-77
2023/06/29 04:34:02;;;;;;;;;;;;;;;18.14;100.00;98232.34;106160;1259;74475;-81
2023/06/29 04:36:30;;;;;;;;;;;;;;;18.09;100.00;98238.62;106269;1252;68275;-79
2023/06/29 04:38:57;;;;;;;;;;;;;;;18.11;100.00;98233.97;106169;1258;72729;-85
2023/06/29 04:41:31;;;;;;;;;;;;;;;18.08;100.00;98233.84;105838;1257;61556;-87
2023/06/29 04:43:59;;;;;;;;;;;;;;;18.12;100.00;98242.77;106093;1258;61240;-81
2023/06/29 04:46:28;;;;;;;;;;;;;;;18.13;100.00;98240.94;106174;1259;73654;-79
2023/06/29 04:48:56;;;;;;;;;;;;;;;18.13;100.00;98242.00;106197;1257;68284;-79
2023/06/29 04:51:25;;;;;;;;;;;;;;;18.19;100.00;98241.58;105905;1255;71234;-79
2023/06/29 04:53:52;;;;;;;;;;;;;;;18.34;100.00;98252.19;106339;1251;61230;-80
2023/06/29 04:56:20;;;;;;;;;;;;;;;18.42;100.00;98243.85;106089;1254;62281;-84
2023/06/29 04:58:47;;;;;;;;;;;;;;;18.54;100.00;98244.55;106346;1256;74585;-78
2023/06/29 05:01:15;;;;;;;;;;;;;;;18.74;100.00;98250.35;106256;1257;68213;-78
2023/06/29 05:03:42;;;;;;;;;;;;;;;18.89;100.00;98250.14;106248;1253;72615;-79
2023/06/29 05:06:10;;;;;;;;;;;;;;;18.81;100.00;98249.55;106109;1260;62578;-79
2023/06/29 05:08:37;;;;;;;;;;;;;;;18.80;100.00;98248.83;106295;1254;61350;-78
2023/06/29 05:11:05;;;;;;;;;;;;;;;18.55;100.00;98247.63;106192;1253;73441;-77
2023/06/29 05:13:35;;;;;;;;;;;;;;;18.46;100.00;98247.77;106065;1266;67074;-80
2023/06/29 05:16:03;;;;;;;;;;;;;;;18.33;100.00;98251.77;105877;1258;162561;-78
2023/06/29 05:18:31;;;;;;;;;;;;;;;18.21;100.00;98250.44;106109;1254;61599;-80
2023/06/29 05:20:59;;;;;;;;;;;;;;;18.17;100.00;98253.56;106145;1259;62359;-80
2023/06/29 05:23:28;;;;;;;;;;;;;;;18.31;100.00;98254.90;106208;1257;74552;-76
2023/06/29 05:25:56;;;;;;;;;;;;;;;18.33;100.00;98260.70;105953;1254;67276;-79
2023/06/29 05:28:23;;;;;;;;;;;;;;;18.36;100.00;98259.55;106207;1258;71393;-76
2023/06/29 05:30:51;;;;;;;;;;;;;;;18.32;100.00;98260.20;106124;1258;61567;-77
2023/06/29 05:33:18;;;;;;;;;;;;;;;18.31;100.00;98260.94;106011;1254;61297;-78
2023/06/29 05:35:47;;;;;;;;;;;;;;;18.41;100.00;98258.55;106023;1254;72449;-81
2023/06/29 05:38:14;;;;;;;;;;;;;;;18.46;100.00;98249.63;105968;1258;68496;-76
2023/06/29 05:40:41;;;;;;;;;;;;;;;18.58;100.00;98252.06;106182;1254;72568;-79
2023/06/29 05:43:09;;;;;;;;;;;;;;;19.00;100.00;98254.44;106173;1254;61206;-79
2023/06/29 05:45:37;;;;;;;;;;;;;;;19.15;100.00;98254.59;106107;1254;61261;-80
2023/06/29 05:48:06;;;;;;;;;;;;;;;19.41;100.00;98257.84;106179;1253;74535;-84
2023/06/29 05:50:34;;;;;;;;;;;;;;;19.51;100.00;98258.44;106033;1257;68435;-80
2023/06/29 05:53:02;;;;;;;;;;;;;;;19.59;100.00;98261.35;106014;1255;71429;-83
2023/06/29 05:55:29;;;;;;;;;;;;;;;20.02;100.00;98265.97;106044;1256;61252;-80
2023/06/29 05:57:56;;;;;;;;;;;;;;;19.86;100.00;98265.14;105994;1254;61468;-77
2023/06/29 06:00:25;;;;;;;;;;;;;;;19.75;100.00;98270.52;105979;1255;74580;-82
2023/06/29 06:02:53;;;;;;;;;;;;;;;19.82;100.00;98266.99;105876;1262;68319;-81
2023/06/29 06:05:21;;;;;;;;;;;;;;;19.51;100.00;98269.31;105896;1261;72732;-88
2023/06/29 06:07:48;;;;;;;;;;;;;;;19.37;100.00;98266.81;105892;1255;61160;-78
2023/06/29 06:10:16;;;;;;;;;;;;;;;19.52;100.00;98267.66;105762;1257;61331;-79
2023/06/29 06:12:43;;;;;;;;;;;;;;;19.40;100.00;98266.36;107602;1254;73908;-81
2023/06/29 06:15:13;;;;;;;;;;;;;;;19.48;100.00;98268.92;109169;1254;67193;-75
2023/06/29 06:17:43;;;;;;;;;;;;;;;19.36;100.00;98273.26;106258;1259;72375;-83
2023/06/29 06:20:11;;;;;;;;;;;;;;;19.24;100.00;98272.83;106059;1260;62384;-79
2023/06/29 06:22:39;;;;;;;;;;;;;;;19.26;100.00;98276.20;105844;1256;61410;-86
2023/06/29 06:25:08;;;;;;;;;;;;;;;19.27;100.00;98278.41;105945;1260;73484;-79
2023/06/29 06:27:36;;;;;;;;;;;;;;;19.26;100.00;98281.81;105571;1263;67347;-81
2023/06/29 06:30:04;;;;;;;;;;;;;;;19.22;100.00;98276.08;105819;1263;72603;-82
2023/06/29 06:32:32;;;;;;;;;;;;;;;19.32;100.00;98274.82;105798;1261;61233;-81
2023/06/29 06:34:59;;;;;;;;;;;;;;;19.45;100.00;98278.65;105855;1260;61415;-82
2023/06/29 06:37:27;;;;;;;;;;;;;;;19.38;100.00;98269.80;105858;1261;73373;-77
2023/06/29 06:39:54;;;;;;;;;;;;;;;19.35;100.00;98274.31;105799;1258;67123;-81
2023/06/29 06:42:22;;;;;;;;;;;;;;;19.14;100.00;98277.80;105826;1258;71391;-84
2023/06/29 06:44:53;;;;;;;;;;;;;;;19.36;100.00;98278.77;105960;1269;61321;-82
2023/06/29 06:47:20;;;;;;;;;;;;;;;19.36;100.00;98276.91;105826;1257;61337;-78
2023/06/29 06:49:48;;;;;;;;;;;;;;;19.41;100.00;98283.34;105772;1260;74567;-80
2023/06/29 06:52:15;;;;;;;;;;;;;;;19.40;100.00;98282.70;105806;1257;69802;-77
2023/06/29 06:54:43;;;;;;;;;;;;;;;19.43;100.00;98282.33;105847;1257;70639;-81
2023/06/29 06:57:10;;;;;;;;;;;;;;;19.46;100.00;98284.02;105799;1255;61744;-77
2023/06/29 06:59:38;;;;;;;;;;;;;;;19.64;100.00;98284.98;105834;1254;61313;-79
2023/06/29 07:02:05;;;;;;;;;;;;;;;19.71;100.00;98288.83;105852;1255;74628;-81
2023/06/29 07:04:33;;;;;;;;;;;;;;;19.53;100.00;98290.45;105869;1260;68272;-81
2023/06/29 07:07:00;;;;;;;;;;;;;;;19.49;100.00;98293.54;105921;1254;72509;-77
2023/06/29 07:09:28;;;;;;;;;;;;;;;19.57;100.00;98297.34;106217;1257;62261;-84
2023/06/29 07:11:55;;;;;;;;;;;;;;;19.65;100.00;98291.37;106024;1254;61295;-80
2023/06/29 07:14:23;;;;;;;;;;;;;;;19.91;100.00;98297.17;106064;1258;74515;-82
2023/06/29 07:16:51;;;;;;;;;;;;;;;20.03;100.00;98302.29;105960;1253;68255;-82
2023/06/29 07:19:19;;;;;;;;;;;;;;;20.15;100.00;98301.98;105966;1259;73034;-79
2023/06/29 07:21:50;;;;;;;;;;;;;;;20.50;100.00;98298.46;106045;1254;61688;-78
2023/06/29 07:24:21;;;;;;;;;;;;;;;20.58;100.00;98305.48;106015;1255;61334;-79
2023/06/29 07:26:48;;;;;;;;;;;;;;;20.59;100.00;98301.61;106022;1254;74452;-83
2023/06/29 07:29:16;;;;;;;;;;;;;;;20.54;100.00;98309.56;106052;1257;68389;-77
2023/06/29 07:31:43;;;;;;;;;;;;;;;20.28;100.00;98306.37;106046;1257;72573;-78
2023/06/29 07:34:10;;;;;;;;;;;;;;;20.28;100.00;98310.41;105981;1255;61390;-78
2023/06/29 07:36:38;;;;;;;;;;;;;;;20.20;100.00;98313.01;105919;1260;61519;-79
2023/06/29 07:39:06;;;;;;;;;;;;;;;20.34;100.00;98316.11;105870;1254;72468;-75
2023/06/29 07:41:34;;;;;;;;;;;;;;;20.46;100.00;98319.23;105740;1255;68785;-81
2023/06/29 07:44:02;;;;;;;;;;;;;;;20.52;100.00;98316.74;105742;1258;70624;-77
2023/06/29 07:46:31;;;;;;;;;;;;;;;20.64;100.00;98318.70;105803;1254;61891;-78
2023/06/29 07:48:59;;;;;;;;;;;;;;;20.66;100.00;98319.06;105868;1261;62453;-80
2023/06/29 07:51:32;;;;;;;;;;;;;;;20.83;100.00;98319.17;105802;1261;74463;-80
2023/06/29 07:54:03;;;;;;;;;;;;;;;21.07;100.00;98317.43;105912;1254;68484;-82
2023/06/29 07:56:31;;;;;;;;;;;;;;;21.22;100.00;98319.59;105899;1254;72713;-84
2023/06/29 07:59:02;;;;;;;;;;;;;;;21.21;100.00;98313.09;105944;1258;61534;-79
2023/06/29 08:01:30;;;;;;;;;;;;;;;21.47;100.00;98320.55;105931;1254;61298;-78
2023/06/29 08:03:57;;;;;;;;;;;;;;;21.85;100.00;98314.60;105905;1260;74578;-78
2023/06/29 08:06:34;;;;;;;;;;;;;;;22.32;100.00;98315.29;106035;1258;68098;-77
2023/06/29 08:09:05;;;;;;;;;;;;;;;22.91;99.67;98314.64;106286;1257;72995;-80
2023/06/29 08:11:32;;;;;;;;;;;;;;;22.97;97.99;98320.90;106071;1254;61859;-76
2023/06/29 08:14:00;;;;;;;;;;;;;;;23.06;96.15;98321.92;106073;1258;61349;-79
2023/06/29 08:16:27;;;;;;;;;;;;;;;22.79;96.71;98315.59;106081;1253;75035;-77
2023/06/29 08:18:55;;;;;;;;;;;;;;;22.73;96.12;98318.23;106004;1257;69764;-82
2023/06/29 08:21:22;;;;;;;;;;;;;;;22.90;94.83;98320.02;105998;1254;72428;-80
2023/06/29 08:23:50;;;;;;;;;;;;;;;22.98;93.83;98322.10;105909;1257;61324;-79
2023/06/29 08:26:18;;;;;;;;;;;;;;;22.65;97.78;98320.65;105800;1257;61151;-80
2023/06/29 08:28:45;;;;;;;;;;;;;;;22.44;99.52;98320.14;105831;1254;74324;-78
2023/06/29 08:31:13;;;;;;;;;;;;;;;22.50;99.80;98321.88;105905;1254;68912;-82
2023/06/29 08:33:41;;;;;;;;;;;;;;;22.72;98.83;98319.54;106282;1254;72558;-77
2023/06/29 08:36:08;;;;;;;;;;;;;;;22.85;94.39;98317.58;106029;1253;62254;-80
2023/06/29 08:38:35;;;;;;;;;;;;;;;23.13;93.46;98318.90;106065;1253;62004;-77
2023/06/29 08:41:04;;;;;;;;;;;;;;;23.16;89.38;98318.17;106162;1254;74618;-78
2023/06/29 08:43:32;;;;;;;;;;;;;;;23.43;85.34;98317.71;106007;1257;67807;-78
2023/06/29 08:46:01;;;;;;;;;;;;;;;23.78;78.72;98315.16;106012;1260;72490;-81
2023/06/29 08:48:29;;;;;;;;;;;;;;;24.03;77.32;98314.84;106138;1254;61295;-80
2023/06/29 08:50:59;;;;;;;;;;;;;;;23.93;79.78;98323.25;106041;1260;61310;-82
2023/06/29 08:53:27;;;;;;;;;;;;;;;23.31;84.95;98322.93;106004;1255;74537;-82
2023/06/29 08:55:56;;;;;;;;;;;;;;;22.99;88.66;98318.52;106066;1260;67317;-85
2023/06/29 08:58:23;;;;;;;;;;;;;;;22.22;95.73;98320.23;105964;1253;71228;-79
2023/06/29 09:00:50;;;;;;;;;;;;;;;21.65;99.93;98324.22;105968;1254;61230;-75
2023/06/29 09:03:18;;;;;;;;;;;;;;;21.49;100.00;98322.09;106005;1253;61148;-79
2023/06/29 09:05:46;;;;;;;;;;;;;;;21.69;100.00;98328.29;105971;1255;74503;-80
2023/06/29 09:08:13;;;;;;;;;;;;;;;21.92;100.00;98331.20;105902;1253;68273;-81
2023/06/29 09:10:41;;;;;;;;;;;;;;;21.86;100.00;98331.92;106001;1254;71479;-81
2023/06/29 09:13:09;;;;;;;;;;;;;;;21.76;100.00;98337.02;106168;1253;61169;-80
2023/06/29 09:15:37;;;;;;;;;;;;;;;21.87;100.00;98331.71;106343;1254;61127;-78
2023/06/29 09:18:05;;;;;;;;;;;;;;;22.05;100.00;98332.94;106072;1257;77268;-80
2023/06/29 09:20:34;;;;;;;;;;;;;;;22.35;100.00;98335.19;107678;1253;68267;-80
2023/06/29 09:23:04;;;;;;;;;;;;;;;22.46;99.80;98336.55;109355;1253;71440;-79
2023/06/29 09:25:38;;;;;;;;;;;;;;;22.35;99.54;98339.25;107080;1254;61305;-82
2023/06/29 09:28:06;;;;;;;;;;;;;;;22.14;99.64;98333.13;106269;1254;61289;-80
2023/06/29 09:30:40;;;;;;;;;;;;;;;21.84;100.00;98332.67;106409;1254;74716;-84
2023/06/29 09:33:09;;;;;;;;;;;;;;;21.60;100.00;98328.10;106224;1257;67888;-81
2023/06/29 09:35:43;;;;;;;;;;;;;;;21.54;100.00;98327.64;106041;1255;71009;-80
2023/06/29 09:38:11;;;;;;;;;;;;;;;21.78;100.00;98328.71;105976;1254;61218;-81
2023/06/29 09:40:48;;;;;;;;;;;;;;;21.82;100.00;98327.86;105967;1254;61352;-80
2023/06/29 09:43:16;;;;;;;;;;;;;;;22.09;99.68;98325.05;105850;1254;74563;-82
2023/06/29 09:45:44;;;;;;;;;;;;;;;22.65;95.75;98324.43;105953;1253;67823;-80
2023/06/29 09:48:12;;;;;;;;;;;;;;;23.31;88.37;98315.35;105872;1257;71153;-83
2023/06/29 09:50:48;;;;;;;;;;;;;;;23.95;82.47;98326.24;106080;1253;61543;-79
2023/06/29 09:53:17;;;;;;;;;;;;;;;24.21;76.20;98328.60;105934;1254;61326;-82
2023/06/29 09:55:44;;;;;;;;;;;;;;;24.19;78.86;98322.62;105965;1253;74488;-81
2023/06/29 09:58:12;;;;;;;;;;;;;;;24.69;73.27;98329.45;105935;1253;68637;-80
2023/06/29 10:00:40;;;;;;;;;;;;;;;24.79;72.01;98329.05;106293;1254;70867;-87
2023/06/29 10:03:08;;;;;;;;;;;;;;;24.97;65.73;98328.52;106129;1254;61289;-81
2023/06/29 10:05:37;;;;;;;;;;;;;;;24.95;64.55;98327.25;106107;1257;61215;-79
2023/06/29 10:08:04;;;;;;;;;;;;;;;25.37;63.75;98331.59;106306;1253;73422;-77
2023/06/29 10:10:33;;;;;;;;;;;;;;;25.34;63.42;98326.15;106065;1258;69844;-78
2023/06/29 10:13:00;;;;;;;;;;;;;;;25.11;61.73;98323.53;106155;1253;71408;-80
2023/06/29 10:15:28;;;;;;;;;;;;;;;24.48;58.07;98327.02;106047;1253;61358;-79
2023/06/29 10:17:59;;;;;;;;;;;;;;;23.94;60.15;98327.96;106137;1254;61343;-83
2023/06/29 10:20:27;;;;;;;;;;;;;;;23.90;61.31;98330.11;106191;1257;76757;-81
2023/06/29 10:22:54;;;;;;;;;;;;;;;23.97;62.80;98330.66;106067;1257;67109;-80
2023/06/29 10:25:22;;;;;;;;;;;;;;;24.06;64.27;98324.66;106279;1253;71384;-81
2023/06/29 10:27:51;;;;;;;;;;;;;;;24.58;64.60;98324.94;106154;1253;61664;-82
2023/06/29 10:30:22;;;;;;;;;;;;;;;25.13;59.45;98325.42;105899;1255;61220;-77
2023/06/29 10:32:50;;;;;;;;;;;;;;;24.81;58.95;98325.38;106037;1254;74545;-80
2023/06/29 10:35:17;;;;;;;;;;;;;;;24.83;57.65;98326.11;105991;1253;68577;-84
2023/06/29 10:37:47;;;;;;;;;;;;;;;25.37;57.51;98327.83;106075;1254;71851;-86
2023/06/29 10:40:15;;;;;;;;;;;;;;;25.35;57.06;98320.90;106125;1253;62083;-80
2023/06/29 10:42:42;;;;;;;;;;;;;;;25.46;56.84;98326.14;106012;1253;61306;-77
2023/06/29 10:45:19;;;;;;;;;;;;;;;25.05;56.80;98316.26;106117;1253;74644;-78
2023/06/29 10:47:56;;;;;;;;;;;;;;;25.45;57.39;98321.73;106130;1253;70857;-79
2023/06/29 10:50:30;;;;;;;;;;;;;;;25.58;56.52;98318.77;105867;1259;73672;-83
2023/06/29 10:52:58;;;;;;;;;;;;;;;25.78;53.37;98321.15;106149;1253;61118;-78
2023/06/29 10:55:37;;;;;;;;;;;;;;;25.94;52.64;98320.30;107007;1253;62353;-83
2023/06/29 10:58:15;;;;;;;;;;;;;;;26.05;53.15;98322.70;106056;1253;74386;-77
2023/06/29 11:00:44;;;;;;;;;;;;;;;25.51;54.56;98322.65;105945;1253;68906;-79
2023/06/29 11:03:12;;;;;;;;;;;;;;;25.04;57.09;98315.87;105892;1255;71051;-78
2023/06/29 11:05:41;;;;;;;;;;;;;;;24.52;59.99;98314.06;106414;1257;61295;-86
2023/06/29 11:08:08;;;;;;;;;;;;;;;24.38;62.57;98313.42;106306;1252;61343;-79
2023/06/29 11:10:38;;;;;;;;;;;;;;;24.06;65.39;98310.73;106195;1254;74819;-81
2023/06/29 11:13:09;;;;;;;;;;;;;;;24.38;67.40;98313.75;106253;1257;67564;-80
2023/06/29 11:15:37;;;;;;;;;;;;;;;24.64;67.85;98313.00;106347;1257;71374;-82
2023/06/29 11:18:07;;;;;;;;;;;;;;;24.88;63.10;98312.83;106242;1254;61537;-85
2023/06/29 11:20:39;;;;;;;;;;;;;;;25.06;63.08;98316.67;105923;1253;61573;-83
2023/06/29 11:23:10;;;;;;;;;;;;;;;25.49;60.96;98320.67;106056;1252;74946;-81
2023/06/29 11:25:37;;;;;;;;;;;;;;;25.40;58.16;98323.67;106059;1257;67145;-81
2023/06/29 11:28:05;;;;;;;;;;;;;;;25.31;58.82;98322.77;106065;1253;72553;-81
2023/06/29 11:30:32;;;;;;;;;;;;;;;24.85;61.82;98324.33;105942;1255;61315;-82
2023/06/29 11:33:00;;;;;;;;;;;;;;;24.93;63.23;98309.97;105997;1260;61761;-77
2023/06/29 11:35:29;;;;;;;;;;;;;;;25.02;62.06;98311.05;105829;1253;74664;-83
2023/06/29 11:38:00;;;;;;;;;;;;;;;25.70;61.86;98314.83;105912;1253;68336;-82
2023/06/29 11:40:28;;;;;;;;;;;;;;;26.12;58.39;98314.87;105958;1255;71874;-79
2023/06/29 11:42:56;;;;;;;;;;;;;;;25.91;55.40;98308.89;105924;1253;61395;-87
2023/06/29 11:45:23;;;;;;;;;;;;;;;25.85;54.86;98311.61;105991;1257;61227;-79
2023/06/29 11:47:53;;;;;;;;;;;;;;;25.90;55.01;98317.45;105950;1253;74541;-75
2023/06/29 11:50:23;;;;;;;;;;;;;;;25.77;54.89;98314.46;105931;1257;67249;-79
2023/06/29 11:52:51;;;;;;;;;;;;;;;25.13;56.67;98312.01;106081;1253;72606;-80
2023/06/29 11:55:19;;;;;;;;;;;;;;;24.50;60.99;98319.04;105971;1252;61247;-83
2023/06/29 11:57:51;;;;;;;;;;;;;;;23.90;67.43;98313.66;105954;1253;61350;-80
2023/06/29 12:00:18;;;;;;;;;;;;;;;23.84;71.91;98310.86;105980;1253;73443;-77
2023/06/29 12:02:49;;;;;;;;;;;;;;;23.75;74.50;98304.93;105917;1253;70714;-82
2023/06/29 12:05:16;;;;;;;;;;;;;;;23.54;78.69;98302.98;105844;1253;72886;-82
2023/06/29 12:07:45;;;;;;;;;;;;;;;23.41;80.98;98299.05;105835;1253;62124;-83
2023/06/29 12:10:13;;;;;;;;;;;;;;;23.55;79.79;98302.48;105975;1253;61875;-85
2023/06/29 12:12:45;;;;;;;;;;;;;;;23.49;81.93;98304.55;105994;1253;73453;-81
2023/06/29 12:15:25;;;;;;;;;;;;;;;23.52;85.54;98301.10;105969;1258;67563;-86
2023/06/29 12:17:58;;;;;;;;;;;;;;;23.59;85.67;98302.13;106030;1254;72648;-84
2023/06/29 12:20:27;;;;;;;;;;;;;;;24.07;82.88;98297.27;105960;1253;61609;-82
2023/06/29 12:22:55;;;;;;;;;;;;;;;24.36;80.17;98298.67;105986;1253;61309;-79
2023/06/29 12:25:22;;;;;;;;;;;;;;;24.38;76.95;98297.85;105905;1253;73114;-81
2023/06/29 12:27:50;;;;;;;;;;;;;;;24.77;77.18;98297.05;106385;1253;67245;-81
2023/06/29 12:30:20;;;;;;;;;;;;;;;24.80;71.30;98299.36;108722;1252;72209;-75
2023/06/29 12:32:50;;;;;;;;;;;;;;;24.44;73.32;98299.09;109002;1253;61330;-81
2023/06/29 12:35:18;;;;;;;;;;;;;;;24.32;75.03;98295.89;106090;1257;61161;-81
2023/06/29 12:37:45;;;;;;;;;;;;;;;24.29;73.58;98295.86;106229;1253;73389;-79